sensor_id;sensor_type;location;lat;lon;timestamp;P1;durP1;ratioP1;P2;durP2;ratioP2
54575;SDS011;40472;53.486;14.542;2023-03-12T00:00:47;2.20;;;1.55;;
54575;SDS011;40472;53.486;14.542;2023-03-12T00:03:13;2.25;;;1.35;;
54575;SDS011;40472;53.486;14.542;2023-03-12T00:05:39;3.85;;;2.38;;
54575;SDS011;40472;53.486;14.542;2023-03-12T00:08:06;2.25;;;1.52;;
54575;SDS011;40472;53.486;14.542;2023-03-12T00:10:33;1.73;;;1.48;;
54575;SDS011;40472;53.486;14.542;2023-03-12T00:12:59;2.97;;;1.25;;
54575;SDS011;40472;53.486;14.542;2023-03-12T00:15:25;6.82;;;2.20;;
54575;SDS011;40472;53.486;14.542;2023-03-12T00:17:52;1.70;;;1.38;;
54575;SDS011;40472;53.486;14.542;2023-03-12T00:20:17;4.95;;;2.05;;
54575;SDS011;40472;53.486;14.542;2023-03-12T00:22:44;2.17;;;1.83;;
54575;SDS011;40472;53.486;14.542;2023-03-12T00:25:11;7.47;;;2.00;;
54575;SDS011;40472;53.486;14.542;2023-03-12T00:27:39;3.35;;;2.00;;
54575;SDS011;40472;53.486;14.542;2023-03-12T00:30:05;4.15;;;1.58;;
54575;SDS011;40472;53.486;14.542;2023-03-12T00:32:31;2.25;;;1.80;;
54575;SDS011;40472;53.486;14.542;2023-03-12T00:34:57;3.05;;;2.20;;
54575;SDS011;40472;53.486;14.542;2023-03-12T00:37:23;2.28;;;1.60;;
54575;SDS011;40472;53.486;14.542;2023-03-12T00:39:49;2.97;;;1.75;;
54575;SDS011;40472;53.486;14.542;2023-03-12T00:42:15;2.80;;;1.60;;
54575;SDS011;40472;53.486;14.542;2023-03-12T00:44:41;1.73;;;1.20;;
54575;SDS011;40472;53.486;14.542;2023-03-12T00:47:08;3.30;;;1.48;;
54575;SDS011;40472;53.486;14.542;2023-03-12T00:49:34;5.88;;;1.52;;
54575;SDS011;40472;53.486;14.542;2023-03-12T00:52:00;1.80;;;1.45;;
54575;SDS011;40472;53.486;14.542;2023-03-12T00:54:28;3.45;;;1.55;;
54575;SDS011;40472;53.486;14.542;2023-03-12T00:56:54;4.00;;;1.58;;
54575;SDS011;40472;53.486;14.542;2023-03-12T00:59:19;5.90;;;2.70;;
54575;SDS011;40472;53.486;14.542;2023-03-12T01:01:45;4.55;;;1.90;;
54575;SDS011;40472;53.486;14.542;2023-03-12T01:04:12;3.00;;;1.92;;
54575;SDS011;40472;53.486;14.542;2023-03-12T01:06:38;2.72;;;1.88;;
54575;SDS011;40472;53.486;14.542;2023-03-12T01:09:04;4.15;;;2.28;;
54575;SDS011;40472;53.486;14.542;2023-03-12T01:11:33;2.28;;;1.92;;
54575;SDS011;40472;53.486;14.542;2023-03-12T01:13:59;1.80;;;1.58;;
54575;SDS011;40472;53.486;14.542;2023-03-12T01:16:27;3.97;;;1.38;;
54575;SDS011;40472;53.486;14.542;2023-03-12T01:18:58;3.05;;;1.25;;
54575;SDS011;40472;53.486;14.542;2023-03-12T01:21:25;1.00;;;0.82;;
54575;SDS011;40472;53.486;14.542;2023-03-12T01:23:51;0.40;;;0.40;;
54575;SDS011;40472;53.486;14.542;2023-03-12T01:26:18;4.20;;;1.15;;
54575;SDS011;40472;53.486;14.542;2023-03-12T01:28:48;7.57;;;0.85;;
54575;SDS011;40472;53.486;14.542;2023-03-12T01:31:15;0.47;;;0.38;;
54575;SDS011;40472;53.486;14.542;2023-03-12T01:33:51;9.75;;;0.68;;
54575;SDS011;40472;53.486;14.542;2023-03-12T01:36:21;0.98;;;0.63;;
54575;SDS011;40472;53.486;14.542;2023-03-12T01:38:49;1.90;;;0.82;;
54575;SDS011;40472;53.486;14.542;2023-03-12T01:41:16;1.95;;;0.60;;
54575;SDS011;40472;53.486;14.542;2023-03-12T01:43:42;2.20;;;0.70;;
54575;SDS011;40472;53.486;14.542;2023-03-12T01:51:20;0.40;;;0.40;;
54575;SDS011;40472;53.486;14.542;2023-03-12T01:53:50;0.50;;;0.47;;
54575;SDS011;40472;53.486;14.542;2023-03-12T01:56:31;0.43;;;0.40;;
54575;SDS011;40472;53.486;14.542;2023-03-12T01:59:02;0.63;;;0.55;;
54575;SDS011;40472;53.486;14.542;2023-03-12T02:01:39;2.65;;;0.65;;
54575;SDS011;40472;53.486;14.542;2023-03-12T02:04:08;0.40;;;0.40;;
54575;SDS011;40472;53.486;14.542;2023-03-12T02:06:37;0.55;;;0.50;;
54575;SDS011;40472;53.486;14.542;2023-03-12T02:09:09;2.28;;;0.65;;
54575;SDS011;40472;53.486;14.542;2023-03-12T02:11:37;0.40;;;0.40;;
54575;SDS011;40472;53.486;14.542;2023-03-12T02:14:02;1.92;;;0.50;;
54575;SDS011;40472;53.486;14.542;2023-03-12T02:16:28;0.30;;;0.30;;
54575;SDS011;40472;53.486;14.542;2023-03-12T02:18:54;1.08;;;0.43;;
54575;SDS011;40472;53.486;14.542;2023-03-12T02:21:25;1.55;;;0.52;;
54575;SDS011;40472;53.486;14.542;2023-03-12T02:26:36;0.65;;;0.47;;
54575;SDS011;40472;53.486;14.542;2023-03-12T02:29:03;2.65;;;0.82;;
54575;SDS011;40472;53.486;14.542;2023-03-12T02:31:32;3.08;;;0.45;;
54575;SDS011;40472;53.486;14.542;2023-03-12T02:34:02;1.00;;;0.63;;
54575;SDS011;40472;53.486;14.542;2023-03-12T02:36:28;4.38;;;1.05;;
54575;SDS011;40472;53.486;14.542;2023-03-12T02:38:54;6.00;;;0.98;;
54575;SDS011;40472;53.486;14.542;2023-03-12T02:43:56;0.30;;;0.30;;
54575;SDS011;40472;53.486;14.542;2023-03-12T02:46:23;2.40;;;0.38;;
54575;SDS011;40472;53.486;14.542;2023-03-12T02:48:49;1.65;;;0.57;;
54575;SDS011;40472;53.486;14.542;2023-03-12T02:51:16;3.60;;;0.77;;
54575;SDS011;40472;53.486;14.542;2023-03-12T02:53:42;4.13;;;0.55;;
54575;SDS011;40472;53.486;14.542;2023-03-12T02:56:07;8.15;;;1.27;;
54575;SDS011;40472;53.486;14.542;2023-03-12T02:58:33;0.45;;;0.45;;
54575;SDS011;40472;53.486;14.542;2023-03-12T03:01:00;1.67;;;0.80;;
54575;SDS011;40472;53.486;14.542;2023-03-12T03:03:26;3.20;;;0.63;;
54575;SDS011;40472;53.486;14.542;2023-03-12T03:05:51;6.32;;;1.15;;
54575;SDS011;40472;53.486;14.542;2023-03-12T03:08:17;0.95;;;0.55;;
54575;SDS011;40472;53.486;14.542;2023-03-12T03:10:43;1.98;;;1.13;;
54575;SDS011;40472;53.486;14.542;2023-03-12T03:13:09;1.17;;;0.65;;
54575;SDS011;40472;53.486;14.542;2023-03-12T03:15:34;3.78;;;1.15;;
54575;SDS011;40472;53.486;14.542;2023-03-12T03:18:00;0.50;;;0.50;;
54575;SDS011;40472;53.486;14.542;2023-03-12T03:20:28;7.78;;;1.13;;
54575;SDS011;40472;53.486;14.542;2023-03-12T03:22:54;4.30;;;0.70;;
54575;SDS011;40472;53.486;14.542;2023-03-12T03:25:20;0.90;;;0.70;;
54575;SDS011;40472;53.486;14.542;2023-03-12T03:27:47;1.17;;;0.73;;
54575;SDS011;40472;53.486;14.542;2023-03-12T03:30:13;1.55;;;0.90;;
54575;SDS011;40472;53.486;14.542;2023-03-12T03:32:40;2.63;;;0.90;;
54575;SDS011;40472;53.486;14.542;2023-03-12T03:35:06;1.05;;;0.95;;
54575;SDS011;40472;53.486;14.542;2023-03-12T03:37:33;9.50;;;1.45;;
54575;SDS011;40472;53.486;14.542;2023-03-12T03:39:58;1.10;;;1.00;;
54575;SDS011;40472;53.486;14.542;2023-03-12T03:42:24;1.80;;;0.95;;
54575;SDS011;40472;53.486;14.542;2023-03-12T03:44:50;1.52;;;0.90;;
54575;SDS011;40472;53.486;14.542;2023-03-12T03:47:16;2.60;;;1.20;;
54575;SDS011;40472;53.486;14.542;2023-03-12T03:49:42;1.98;;;1.05;;
54575;SDS011;40472;53.486;14.542;2023-03-12T03:52:08;2.70;;;1.92;;
54575;SDS011;40472;53.486;14.542;2023-03-12T03:54:33;2.20;;;1.65;;
54575;SDS011;40472;53.486;14.542;2023-03-12T03:57:00;3.75;;;1.88;;
54575;SDS011;40472;53.486;14.542;2023-03-12T03:59:26;10.50;;;3.00;;
54575;SDS011;40472;53.486;14.542;2023-03-12T04:01:52;6.30;;;2.53;;
54575;SDS011;40472;53.486;14.542;2023-03-12T04:04:18;3.58;;;2.10;;
54575;SDS011;40472;53.486;14.542;2023-03-12T04:06:43;1.90;;;1.30;;
54575;SDS011;40472;53.486;14.542;2023-03-12T04:09:09;4.25;;;1.83;;
54575;SDS011;40472;53.486;14.542;2023-03-12T04:11:35;6.47;;;2.38;;
54575;SDS011;40472;53.486;14.542;2023-03-12T04:14:02;6.68;;;3.47;;
54575;SDS011;40472;53.486;14.542;2023-03-12T04:16:27;2.38;;;1.52;;
54575;SDS011;40472;53.486;14.542;2023-03-12T04:18:53;5.80;;;1.85;;
54575;SDS011;40472;53.486;14.542;2023-03-12T04:21:19;1.70;;;1.35;;
54575;SDS011;40472;53.486;14.542;2023-03-12T04:23:45;1.77;;;1.30;;
54575;SDS011;40472;53.486;14.542;2023-03-12T04:26:11;3.05;;;2.30;;
54575;SDS011;40472;53.486;14.542;2023-03-12T04:28:37;3.20;;;1.42;;
54575;SDS011;40472;53.486;14.542;2023-03-12T04:31:04;3.85;;;1.95;;
54575;SDS011;40472;53.486;14.542;2023-03-12T04:33:33;6.50;;;2.20;;
54575;SDS011;40472;53.486;14.542;2023-03-12T04:36:00;5.40;;;2.72;;
54575;SDS011;40472;53.486;14.542;2023-03-12T04:38:27;3.22;;;2.05;;
54575;SDS011;40472;53.486;14.542;2023-03-12T04:40:56;1.42;;;1.27;;
54575;SDS011;40472;53.486;14.542;2023-03-12T04:43:22;3.97;;;2.22;;
54575;SDS011;40472;53.486;14.542;2023-03-12T04:45:48;6.47;;;1.95;;
54575;SDS011;40472;53.486;14.542;2023-03-12T04:48:14;3.58;;;2.22;;
54575;SDS011;40472;53.486;14.542;2023-03-12T04:50:40;2.60;;;2.17;;
54575;SDS011;40472;53.486;14.542;2023-03-12T04:53:06;1.90;;;1.63;;
54575;SDS011;40472;53.486;14.542;2023-03-12T04:55:32;2.25;;;1.60;;
54575;SDS011;40472;53.486;14.542;2023-03-12T04:57:57;2.78;;;1.40;;
54575;SDS011;40472;53.486;14.542;2023-03-12T05:00:23;2.83;;;1.73;;
54575;SDS011;40472;53.486;14.542;2023-03-12T05:02:50;2.45;;;1.48;;
54575;SDS011;40472;53.486;14.542;2023-03-12T05:05:15;2.63;;;1.75;;
54575;SDS011;40472;53.486;14.542;2023-03-12T05:07:41;3.33;;;2.25;;
54575;SDS011;40472;53.486;14.542;2023-03-12T05:10:07;12.77;;;2.28;;
54575;SDS011;40472;53.486;14.542;2023-03-12T05:12:33;1.48;;;1.38;;
54575;SDS011;40472;53.486;14.542;2023-03-12T05:14:58;4.95;;;1.77;;
54575;SDS011;40472;53.486;14.542;2023-03-12T05:17:24;1.60;;;1.08;;
54575;SDS011;40472;53.486;14.542;2023-03-12T05:19:50;4.50;;;2.03;;
54575;SDS011;40472;53.486;14.542;2023-03-12T05:22:16;2.45;;;1.55;;
54575;SDS011;40472;53.486;14.542;2023-03-12T05:24:42;6.20;;;2.97;;
54575;SDS011;40472;53.486;14.542;2023-03-12T05:27:07;5.20;;;1.88;;
54575;SDS011;40472;53.486;14.542;2023-03-12T05:29:38;3.00;;;1.85;;
54575;SDS011;40472;53.486;14.542;2023-03-12T05:32:03;8.13;;;2.00;;
54575;SDS011;40472;53.486;14.542;2023-03-12T05:34:31;6.07;;;2.25;;
54575;SDS011;40472;53.486;14.542;2023-03-12T05:36:57;3.03;;;1.65;;
54575;SDS011;40472;53.486;14.542;2023-03-12T05:39:23;5.75;;;3.15;;
54575;SDS011;40472;53.486;14.542;2023-03-12T05:41:49;5.13;;;2.17;;
54575;SDS011;40472;53.486;14.542;2023-03-12T05:44:17;3.30;;;2.25;;
54575;SDS011;40472;53.486;14.542;2023-03-12T05:46:43;2.70;;;2.00;;
54575;SDS011;40472;53.486;14.542;2023-03-12T05:49:09;3.22;;;1.42;;
54575;SDS011;40472;53.486;14.542;2023-03-12T05:51:35;2.70;;;1.10;;
54575;SDS011;40472;53.486;14.542;2023-03-12T05:54:01;2.35;;;1.95;;
54575;SDS011;40472;53.486;14.542;2023-03-12T05:56:28;3.85;;;2.33;;
54575;SDS011;40472;53.486;14.542;2023-03-12T05:58:53;4.10;;;1.73;;
54575;SDS011;40472;53.486;14.542;2023-03-12T06:01:21;6.30;;;2.28;;
54575;SDS011;40472;53.486;14.542;2023-03-12T06:03:48;5.25;;;1.80;;
54575;SDS011;40472;53.486;14.542;2023-03-12T06:06:14;4.93;;;1.77;;
54575;SDS011;40472;53.486;14.542;2023-03-12T06:08:40;8.68;;;3.30;;
54575;SDS011;40472;53.486;14.542;2023-03-12T06:11:06;4.30;;;1.85;;
54575;SDS011;40472;53.486;14.542;2023-03-12T06:13:32;6.40;;;2.35;;
54575;SDS011;40472;53.486;14.542;2023-03-12T06:16:05;6.60;;;1.88;;
54575;SDS011;40472;53.486;14.542;2023-03-12T06:18:42;3.97;;;1.88;;
54575;SDS011;40472;53.486;14.542;2023-03-12T06:23:35;4.57;;;2.65;;
54575;SDS011;40472;53.486;14.542;2023-03-12T06:26:01;3.75;;;2.42;;
54575;SDS011;40472;53.486;14.542;2023-03-12T06:28:26;4.25;;;1.95;;
54575;SDS011;40472;53.486;14.542;2023-03-12T06:30:52;6.45;;;2.38;;
54575;SDS011;40472;53.486;14.542;2023-03-12T06:33:19;10.57;;;2.78;;
54575;SDS011;40472;53.486;14.542;2023-03-12T06:35:45;5.18;;;2.65;;
54575;SDS011;40472;53.486;14.542;2023-03-12T06:38:10;5.15;;;2.55;;
54575;SDS011;40472;53.486;14.542;2023-03-12T06:40:36;7.35;;;2.22;;
54575;SDS011;40472;53.486;14.542;2023-03-12T06:43:02;5.90;;;2.15;;
54575;SDS011;40472;53.486;14.542;2023-03-12T06:45:28;5.90;;;2.28;;
54575;SDS011;40472;53.486;14.542;2023-03-12T06:47:53;5.18;;;2.67;;
54575;SDS011;40472;53.486;14.542;2023-03-12T06:50:19;7.72;;;2.17;;
54575;SDS011;40472;53.486;14.542;2023-03-12T06:52:45;2.35;;;1.60;;
54575;SDS011;40472;53.486;14.542;2023-03-12T06:55:11;2.92;;;1.67;;
54575;SDS011;40472;53.486;14.542;2023-03-12T06:57:37;2.47;;;1.38;;
54575;SDS011;40472;53.486;14.542;2023-03-12T07:00:05;2.65;;;1.65;;
54575;SDS011;40472;53.486;14.542;2023-03-12T07:02:32;3.33;;;1.83;;
54575;SDS011;40472;53.486;14.542;2023-03-12T07:04:57;24.55;;;3.40;;
54575;SDS011;40472;53.486;14.542;2023-03-12T07:07:23;4.22;;;2.63;;
54575;SDS011;40472;53.486;14.542;2023-03-12T07:09:49;4.40;;;2.30;;
54575;SDS011;40472;53.486;14.542;2023-03-12T07:12:14;1.70;;;1.13;;
54575;SDS011;40472;53.486;14.542;2023-03-12T07:14:40;8.43;;;1.70;;
54575;SDS011;40472;53.486;14.542;2023-03-12T07:17:06;2.05;;;1.33;;
54575;SDS011;40472;53.486;14.542;2023-03-12T07:19:32;16.83;;;2.47;;
54575;SDS011;40472;53.486;14.542;2023-03-12T07:21:57;3.38;;;1.52;;
54575;SDS011;40472;53.486;14.542;2023-03-12T07:24:23;10.82;;;1.88;;
54575;SDS011;40472;53.486;14.542;2023-03-12T07:26:49;2.53;;;1.83;;
54575;SDS011;40472;53.486;14.542;2023-03-12T07:29:15;2.78;;;1.83;;
54575;SDS011;40472;53.486;14.542;2023-03-12T07:31:43;9.57;;;2.25;;
54575;SDS011;40472;53.486;14.542;2023-03-12T07:34:09;6.40;;;1.83;;
54575;SDS011;40472;53.486;14.542;2023-03-12T07:36:34;4.40;;;2.30;;
54575;SDS011;40472;53.486;14.542;2023-03-12T07:39:02;4.28;;;2.60;;
54575;SDS011;40472;53.486;14.542;2023-03-12T07:41:28;3.30;;;2.13;;
54575;SDS011;40472;53.486;14.542;2023-03-12T07:43:54;2.97;;;1.70;;
54575;SDS011;40472;53.486;14.542;2023-03-12T07:46:20;1.23;;;0.95;;
54575;SDS011;40472;53.486;14.542;2023-03-12T07:48:46;3.55;;;1.98;;
54575;SDS011;40472;53.486;14.542;2023-03-12T07:51:11;8.77;;;2.50;;
54575;SDS011;40472;53.486;14.542;2023-03-12T07:53:37;3.20;;;1.73;;
54575;SDS011;40472;53.486;14.542;2023-03-12T07:56:03;2.28;;;1.90;;
54575;SDS011;40472;53.486;14.542;2023-03-12T07:58:29;5.90;;;1.35;;
54575;SDS011;40472;53.486;14.542;2023-03-12T08:00:55;9.25;;;2.38;;
54575;SDS011;40472;53.486;14.542;2023-03-12T08:03:21;4.13;;;1.75;;
54575;SDS011;40472;53.486;14.542;2023-03-12T08:06:00;4.93;;;2.10;;
54575;SDS011;40472;53.486;14.542;2023-03-12T08:08:28;2.63;;;1.60;;
54575;SDS011;40472;53.486;14.542;2023-03-12T08:10:55;4.47;;;2.63;;
54575;SDS011;40472;53.486;14.542;2023-03-12T08:13:21;14.18;;;2.97;;
54575;SDS011;40472;53.486;14.542;2023-03-12T08:15:51;3.80;;;2.58;;
54575;SDS011;40472;53.486;14.542;2023-03-12T08:18:18;6.28;;;2.15;;
54575;SDS011;40472;53.486;14.542;2023-03-12T08:20:45;5.53;;;1.42;;
54575;SDS011;40472;53.486;14.542;2023-03-12T08:23:15;1.50;;;1.20;;
54575;SDS011;40472;53.486;14.542;2023-03-12T08:25:43;1.27;;;1.05;;
54575;SDS011;40472;53.486;14.542;2023-03-12T08:28:11;1.60;;;1.27;;
54575;SDS011;40472;53.486;14.542;2023-03-12T08:30:37;3.35;;;1.63;;
54575;SDS011;40472;53.486;14.542;2023-03-12T08:33:03;2.80;;;1.50;;
54575;SDS011;40472;53.486;14.542;2023-03-12T08:35:29;8.68;;;2.05;;
54575;SDS011;40472;53.486;14.542;2023-03-12T08:37:55;3.08;;;1.35;;
54575;SDS011;40472;53.486;14.542;2023-03-12T08:40:22;4.10;;;2.13;;
54575;SDS011;40472;53.486;14.542;2023-03-12T08:42:48;6.95;;;2.63;;
54575;SDS011;40472;53.486;14.542;2023-03-12T08:45:14;2.88;;;2.13;;
54575;SDS011;40472;53.486;14.542;2023-03-12T08:47:40;3.60;;;1.23;;
54575;SDS011;40472;53.486;14.542;2023-03-12T08:50:08;6.82;;;1.42;;
54575;SDS011;40472;53.486;14.542;2023-03-12T08:52:35;4.38;;;1.35;;
54575;SDS011;40472;53.486;14.542;2023-03-12T08:55:01;2.92;;;1.45;;
54575;SDS011;40472;53.486;14.542;2023-03-12T08:57:27;1.85;;;1.10;;
54575;SDS011;40472;53.486;14.542;2023-03-12T08:59:53;4.35;;;2.00;;
54575;SDS011;40472;53.486;14.542;2023-03-12T09:02:19;2.10;;;1.17;;
54575;SDS011;40472;53.486;14.542;2023-03-12T09:04:48;3.25;;;1.27;;
54575;SDS011;40472;53.486;14.542;2023-03-12T09:07:14;0.85;;;0.73;;
54575;SDS011;40472;53.486;14.542;2023-03-12T09:09:43;1.10;;;1.00;;
54575;SDS011;40472;53.486;14.542;2023-03-12T09:12:09;2.80;;;1.45;;
54575;SDS011;40472;53.486;14.542;2023-03-12T09:14:35;1.83;;;0.73;;
54575;SDS011;40472;53.486;14.542;2023-03-12T09:17:01;7.28;;;1.30;;
54575;SDS011;40472;53.486;14.542;2023-03-12T09:19:28;1.75;;;1.27;;
54575;SDS011;40472;53.486;14.542;2023-03-12T09:21:57;7.65;;;1.10;;
54575;SDS011;40472;53.486;14.542;2023-03-12T09:24:23;4.28;;;1.67;;
54575;SDS011;40472;53.486;14.542;2023-03-12T09:26:49;10.05;;;2.97;;
54575;SDS011;40472;53.486;14.542;2023-03-12T09:29:15;4.55;;;1.70;;
54575;SDS011;40472;53.486;14.542;2023-03-12T09:31:41;6.47;;;1.08;;
54575;SDS011;40472;53.486;14.542;2023-03-12T09:34:07;2.03;;;1.15;;
54575;SDS011;40472;53.486;14.542;2023-03-12T09:36:32;6.45;;;1.48;;
54575;SDS011;40472;53.486;14.542;2023-03-12T09:38:58;4.93;;;1.17;;
54575;SDS011;40472;53.486;14.542;2023-03-12T09:41:25;1.58;;;0.75;;
54575;SDS011;40472;53.486;14.542;2023-03-12T09:46:50;1.85;;;0.80;;
54575;SDS011;40472;53.486;14.542;2023-03-12T09:49:40;4.47;;;1.08;;
54575;SDS011;40472;53.486;14.542;2023-03-12T09:57:33;5.88;;;1.00;;
54575;SDS011;40472;53.486;14.542;2023-03-12T09:59:59;3.33;;;1.70;;
54575;SDS011;40472;53.486;14.542;2023-03-12T10:05:35;3.25;;;1.63;;
54575;SDS011;40472;53.486;14.542;2023-03-12T10:23:58;1.67;;;1.52;;
54575;SDS011;40472;53.486;14.542;2023-03-12T10:26:48;2.63;;;1.48;;
54575;SDS011;40472;53.486;14.542;2023-03-12T10:29:19;3.25;;;2.08;;
54575;SDS011;40472;53.486;14.542;2023-03-12T10:34:41;2.60;;;1.05;;
54575;SDS011;40472;53.486;14.542;2023-03-12T10:37:19;2.80;;;1.50;;
54575;SDS011;40472;53.486;14.542;2023-03-12T10:39:53;5.15;;;2.20;;
54575;SDS011;40472;53.486;14.542;2023-03-12T10:42:25;3.25;;;1.63;;
54575;SDS011;40472;53.486;14.542;2023-03-12T10:44:53;2.05;;;1.27;;
54575;SDS011;40472;53.486;14.542;2023-03-12T10:47:35;8.45;;;1.88;;
54575;SDS011;40472;53.486;14.542;2023-03-12T10:50:16;5.63;;;1.38;;
54575;SDS011;40472;53.486;14.542;2023-03-12T10:52:44;2.03;;;1.25;;
54575;SDS011;40472;53.486;14.542;2023-03-12T10:57:40;2.65;;;0.88;;
54575;SDS011;40472;53.486;14.542;2023-03-12T11:00:07;12.10;;;1.67;;
54575;SDS011;40472;53.486;14.542;2023-03-12T11:02:42;3.33;;;1.65;;
54575;SDS011;40472;53.486;14.542;2023-03-12T11:05:46;1.90;;;0.57;;
54575;SDS011;40472;53.486;14.542;2023-03-12T11:08:22;6.00;;;1.27;;
54575;SDS011;40472;53.486;14.542;2023-03-12T11:10:48;1.73;;;0.60;;
54575;SDS011;40472;53.486;14.542;2023-03-12T11:16:02;9.63;;;1.15;;
54575;SDS011;40472;53.486;14.542;2023-03-12T11:18:29;4.47;;;0.50;;
54575;SDS011;40472;53.486;14.542;2023-03-12T11:23:35;6.38;;;1.10;;
54575;SDS011;40472;53.486;14.542;2023-03-12T11:26:03;0.50;;;0.50;;
54575;SDS011;40472;53.486;14.542;2023-03-12T11:28:44;1.20;;;0.47;;
54575;SDS011;40472;53.486;14.542;2023-03-12T11:31:23;4.88;;;1.05;;
54575;SDS011;40472;53.486;14.542;2023-03-12T11:33:53;3.50;;;1.70;;
54575;SDS011;40472;53.486;14.542;2023-03-12T11:39:19;5.07;;;0.75;;
54575;SDS011;40472;53.486;14.542;2023-03-12T11:47:47;6.88;;;0.85;;
54575;SDS011;40472;53.486;14.542;2023-03-12T11:53:11;1.65;;;0.60;;
54575;SDS011;40472;53.486;14.542;2023-03-12T11:55:55;1.08;;;0.82;;
54575;SDS011;40472;53.486;14.542;2023-03-12T11:58:46;1.08;;;0.68;;
54575;SDS011;40472;53.486;14.542;2023-03-12T12:01:35;1.48;;;0.68;;
54575;SDS011;40472;53.486;14.542;2023-03-12T12:04:12;2.95;;;1.20;;
54575;SDS011;40472;53.486;14.542;2023-03-12T12:12:07;7.47;;;1.52;;
54575;SDS011;40472;53.486;14.542;2023-03-12T12:26:18;2.95;;;1.02;;
54575;SDS011;40472;53.486;14.542;2023-03-12T12:28:58;2.80;;;0.75;;
54575;SDS011;40472;53.486;14.542;2023-03-12T12:36:33;0.90;;;0.50;;
54575;SDS011;40472;53.486;14.542;2023-03-12T12:39:02;3.03;;;0.50;;
54575;SDS011;40472;53.486;14.542;2023-03-12T12:41:33;1.48;;;0.40;;
54575;SDS011;40472;53.486;14.542;2023-03-12T12:44:01;6.93;;;1.27;;
54575;SDS011;40472;53.486;14.542;2023-03-12T12:46:35;2.88;;;0.60;;
54575;SDS011;40472;53.486;14.542;2023-03-12T12:49:35;2.78;;;0.90;;
54575;SDS011;40472;53.486;14.542;2023-03-12T12:52:04;0.95;;;0.60;;
54575;SDS011;40472;53.486;14.542;2023-03-12T12:54:34;5.85;;;1.75;;
54575;SDS011;40472;53.486;14.542;2023-03-12T12:57:09;0.52;;;0.50;;
54575;SDS011;40472;53.486;14.542;2023-03-12T13:02:51;3.13;;;0.77;;
54575;SDS011;40472;53.486;14.542;2023-03-12T13:05:21;0.70;;;0.40;;
54575;SDS011;40472;53.486;14.542;2023-03-12T13:07:50;3.40;;;1.27;;
54575;SDS011;40472;53.486;14.542;2023-03-12T13:12:57;4.30;;;0.85;;
54575;SDS011;40472;53.486;14.542;2023-03-12T13:15:39;0.43;;;0.38;;
54575;SDS011;40472;53.486;14.542;2023-03-12T13:18:28;1.73;;;0.90;;
54575;SDS011;40472;53.486;14.542;2023-03-12T13:26:31;2.92;;;0.80;;
54575;SDS011;40472;53.486;14.542;2023-03-12T13:31:54;0.50;;;0.40;;
54575;SDS011;40472;53.486;14.542;2023-03-12T13:36:49;1.50;;;0.73;;
54575;SDS011;40472;53.486;14.542;2023-03-12T13:49:39;3.63;;;0.88;;
54575;SDS011;40472;53.486;14.542;2023-03-12T13:55:43;1.75;;;0.73;;
54575;SDS011;40472;53.486;14.542;2023-03-12T13:57:53;8.43;;;1.27;;
54575;SDS011;40472;53.486;14.542;2023-03-12T14:00:27;10.68;;;1.33;;
54575;SDS011;40472;53.486;14.542;2023-03-12T14:06:10;1.15;;;0.55;;
54575;SDS011;40472;53.486;14.542;2023-03-12T14:17:12;0.50;;;0.50;;
54575;SDS011;40472;53.486;14.542;2023-03-12T14:22:34;3.60;;;1.00;;
54575;SDS011;40472;53.486;14.542;2023-03-12T14:25:04;0.90;;;0.73;;
54575;SDS011;40472;53.486;14.542;2023-03-12T14:27:37;3.05;;;0.65;;
54575;SDS011;40472;53.486;14.542;2023-03-12T14:30:10;0.63;;;0.63;;
54575;SDS011;40472;53.486;14.542;2023-03-12T14:32:48;1.27;;;0.65;;
54575;SDS011;40472;53.486;14.542;2023-03-12T14:35:24;0.63;;;0.55;;
54575;SDS011;40472;53.486;14.542;2023-03-12T14:41:01;4.45;;;1.70;;
54575;SDS011;40472;53.486;14.542;2023-03-12T14:43:31;1.92;;;0.80;;
54575;SDS011;40472;53.486;14.542;2023-03-12T14:46:00;2.00;;;0.85;;
54575;SDS011;40472;53.486;14.542;2023-03-12T14:48:33;2.45;;;1.15;;
54575;SDS011;40472;53.486;14.542;2023-03-12T14:51:01;4.28;;;1.40;;
54575;SDS011;40472;53.486;14.542;2023-03-12T14:53:31;1.10;;;0.85;;
54575;SDS011;40472;53.486;14.542;2023-03-12T14:56:03;4.13;;;1.38;;
54575;SDS011;40472;53.486;14.542;2023-03-12T14:58:33;4.07;;;0.93;;
54575;SDS011;40472;53.486;14.542;2023-03-12T15:01:06;4.95;;;1.70;;
54575;SDS011;40472;53.486;14.542;2023-03-12T15:03:40;2.42;;;1.30;;
54575;SDS011;40472;53.486;14.542;2023-03-12T15:06:51;4.28;;;1.63;;
54575;SDS011;40472;53.486;14.542;2023-03-12T15:09:02;1.05;;;0.82;;
54575;SDS011;40472;53.486;14.542;2023-03-12T15:11:33;5.32;;;1.92;;
54575;SDS011;40472;53.486;14.542;2023-03-12T15:14:06;4.95;;;1.13;;
54575;SDS011;40472;53.486;14.542;2023-03-12T15:16:36;7.75;;;1.80;;
54575;SDS011;40472;53.486;14.542;2023-03-12T15:19:02;5.97;;;1.77;;
54575;SDS011;40472;53.486;14.542;2023-03-12T15:21:30;1.77;;;0.90;;
54575;SDS011;40472;53.486;14.542;2023-03-12T15:23:58;2.53;;;1.30;;
54575;SDS011;40472;53.486;14.542;2023-03-12T15:26:26;3.92;;;1.50;;
54575;SDS011;40472;53.486;14.542;2023-03-12T15:31:23;6.88;;;2.00;;
54575;SDS011;40472;53.486;14.542;2023-03-12T15:34:02;4.05;;;1.48;;
54575;SDS011;40472;53.486;14.542;2023-03-12T15:36:30;9.13;;;2.33;;
54575;SDS011;40472;53.486;14.542;2023-03-12T15:39:11;2.78;;;1.80;;
54575;SDS011;40472;53.486;14.542;2023-03-12T15:42:00;1.55;;;0.90;;
54575;SDS011;40472;53.486;14.542;2023-03-12T15:44:48;5.43;;;2.15;;
54575;SDS011;40472;53.486;14.542;2023-03-12T15:47:22;3.22;;;1.75;;
54575;SDS011;40472;53.486;14.542;2023-03-12T15:49:55;7.30;;;2.03;;
54575;SDS011;40472;53.486;14.542;2023-03-12T15:52:26;6.55;;;1.80;;
54575;SDS011;40472;53.486;14.542;2023-03-12T15:55:17;6.85;;;2.30;;
54575;SDS011;40472;53.486;14.542;2023-03-12T15:57:51;7.30;;;3.00;;
54575;SDS011;40472;53.486;14.542;2023-03-12T16:05:13;3.20;;;1.90;;
54575;SDS011;40472;53.486;14.542;2023-03-12T16:07:39;5.03;;;2.55;;
54575;SDS011;40472;53.486;14.542;2023-03-12T16:10:05;7.97;;;3.45;;
54575;SDS011;40472;53.486;14.542;2023-03-12T16:12:36;4.63;;;2.08;;
54575;SDS011;40472;53.486;14.542;2023-03-12T16:15:02;3.75;;;1.65;;
54575;SDS011;40472;53.486;14.542;2023-03-12T16:17:28;5.53;;;2.10;;
54575;SDS011;40472;53.486;14.542;2023-03-12T16:19:54;8.30;;;2.72;;
54575;SDS011;40472;53.486;14.542;2023-03-12T16:22:20;4.53;;;2.22;;
54575;SDS011;40472;53.486;14.542;2023-03-12T16:24:49;8.32;;;3.10;;
54575;SDS011;40472;53.486;14.542;2023-03-12T16:27:14;8.70;;;3.20;;
54575;SDS011;40472;53.486;14.542;2023-03-12T16:29:41;5.55;;;2.17;;
54575;SDS011;40472;53.486;14.542;2023-03-12T16:32:09;13.38;;;2.75;;
54575;SDS011;40472;53.486;14.542;2023-03-12T16:34:40;4.97;;;1.83;;
54575;SDS011;40472;53.486;14.542;2023-03-12T16:37:09;5.93;;;2.20;;
54575;SDS011;40472;53.486;14.542;2023-03-12T16:39:36;4.20;;;2.25;;
54575;SDS011;40472;53.486;14.542;2023-03-12T16:42:02;6.80;;;1.75;;
54575;SDS011;40472;53.486;14.542;2023-03-12T16:44:37;4.95;;;1.98;;
54575;SDS011;40472;53.486;14.542;2023-03-12T16:47:08;3.70;;;1.73;;
54575;SDS011;40472;53.486;14.542;2023-03-12T16:49:36;4.90;;;2.17;;
54575;SDS011;40472;53.486;14.542;2023-03-12T16:52:10;3.60;;;1.77;;
54575;SDS011;40472;53.486;14.542;2023-03-12T16:54:47;2.08;;;1.25;;
54575;SDS011;40472;53.486;14.542;2023-03-12T16:59:56;4.22;;;1.77;;
54575;SDS011;40472;53.486;14.542;2023-03-12T17:02:22;2.78;;;1.42;;
54575;SDS011;40472;53.486;14.542;2023-03-12T17:04:48;4.85;;;2.40;;